sensor_id;sensor_type;location;lat;lon;timestamp;P1;P2;P0
65556;PMS3003;52200;53.490;14.376;2023-12-29T00:01:16;7.00;2.20;1.00
65556;PMS3003;52200;53.490;14.376;2023-12-29T00:03:43;7.00;2.60;0.80
65556;PMS3003;52200;53.490;14.376;2023-12-29T00:06:09;7.00;3.00;0.00
65556;PMS3003;52200;53.490;14.376;2023-12-29T00:08:35;9.00;2.00;1.00
65556;PMS3003;52200;53.490;14.376;2023-12-29T00:11:01;7.00;2.00;1.00
65556;PMS3003;52200;53.490;14.376;2023-12-29T00:13:27;7.00;2.50;1.00
65556;PMS3003;52200;53.490;14.376;2023-12-29T00:15:53;6.75;2.25;1.00
65556;PMS3003;52200;53.490;14.376;2023-12-29T00:18:19;6.00;1.00;0.00
65556;PMS3003;52200;53.490;14.376;2023-12-29T00:20:45;4.00;1.00;0.00
65556;PMS3003;52200;53.490;14.376;2023-12-29T00:23:10;6.50;1.00;0.50
65556;PMS3003;52200;53.490;14.376;2023-12-29T00:25:36;8.25;1.00;0.00
65556;PMS3003;52200;53.490;14.376;2023-12-29T00:28:02;6.80;1.80;1.00
65556;PMS3003;52200;53.490;14.376;2023-12-29T00:30:28;6.40;2.20;1.00
65556;PMS3003;52200;53.490;14.376;2023-12-29T00:32:56;8.80;2.60;0.60
65556;PMS3003;52200;53.490;14.376;2023-12-29T00:35:22;4.00;1.00;0.00
65556;PMS3003;52200;53.490;14.376;2023-12-29T00:37:49;7.50;2.00;1.00
65556;PMS3003;52200;53.490;14.376;2023-12-29T00:40:15;7.00;3.00;1.00
65556;PMS3003;52200;53.490;14.376;2023-12-29T00:42:41;7.00;2.00;0.75
65556;PMS3003;52200;53.490;14.376;2023-12-29T00:45:06;7.00;2.00;1.00
65556;PMS3003;52200;53.490;14.376;2023-12-29T00:47:33;5.20;1.00;0.00
65556;PMS3003;52200;53.490;14.376;2023-12-29T00:50:00;5.60;1.00;0.20
65556;PMS3003;52200;53.490;14.376;2023-12-29T00:52:26;4.00;1.00;0.80
65556;PMS3003;52200;53.490;14.376;2023-12-29T00:54:51;6.40;1.40;0.00
65556;PMS3003;52200;53.490;14.376;2023-12-29T00:57:17;6.75;2.00;1.00
65556;PMS3003;52200;53.490;14.376;2023-12-29T00:59:42;6.50;2.25;0.75
65556;PMS3003;52200;53.490;14.376;2023-12-29T01:02:09;5.80;1.80;1.00
65556;PMS3003;52200;53.490;14.376;2023-12-29T01:04:37;6.80;2.00;0.00
65556;PMS3003;52200;53.490;14.376;2023-12-29T01:07:05;5.80;1.60;0.00
65556;PMS3003;52200;53.490;14.376;2023-12-29T01:09:30;7.25;1.75;1.00
65556;PMS3003;52200;53.490;14.376;2023-12-29T01:11:56;8.00;1.25;0.25
65556;PMS3003;52200;53.490;14.376;2023-12-29T01:14:21;7.50;2.00;1.00
65556;PMS3003;52200;53.490;14.376;2023-12-29T01:16:46;6.75;2.50;1.00
65556;PMS3003;52200;53.490;14.376;2023-12-29T01:19:12;5.25;1.25;0.25
65556;PMS3003;52200;53.490;14.376;2023-12-29T01:21:38;6.00;1.25;1.00
65556;PMS3003;52200;53.490;14.376;2023-12-29T01:24:03;7.25;2.75;0.00
65556;PMS3003;52200;53.490;14.376;2023-12-29T01:26:29;6.40;1.40;0.40
65556;PMS3003;52200;53.490;14.376;2023-12-29T01:28:55;6.75;1.00;0.00
65556;PMS3003;52200;53.490;14.376;2023-12-29T01:31:20;9.00;3.00;0.00
65556;PMS3003;52200;53.490;14.376;2023-12-29T01:33:46;5.20;1.60;0.00
65556;PMS3003;52200;53.490;14.376;2023-12-29T01:36:18;7.00;1.75;0.00
65556;PMS3003;52200;53.490;14.376;2023-12-29T01:38:44;8.60;1.60;1.00
65556;PMS3003;52200;53.490;14.376;2023-12-29T01:41:09;4059.00;4059.00;4059.00
65556;PMS3003;52200;53.490;14.376;2023-12-29T01:43:35;7.00;3.00;1.00
65556;PMS3003;52200;53.490;14.376;2023-12-29T01:46:00;7.25;2.00;1.00
65556;PMS3003;52200;53.490;14.376;2023-12-29T01:48:26;6.00;1.50;1.00
65556;PMS3003;52200;53.490;14.376;2023-12-29T01:50:52;5.80;1.80;0.40
65556;PMS3003;52200;53.490;14.376;2023-12-29T01:53:19;7.60;2.80;0.80
65556;PMS3003;52200;53.490;14.376;2023-12-29T01:55:45;6.20;2.00;1.00
65556;PMS3003;52200;53.490;14.376;2023-12-29T01:58:11;6.75;2.00;0.00
65556;PMS3003;52200;53.490;14.376;2023-12-29T02:00:36;5.50;1.50;0.00
65556;PMS3003;52200;53.490;14.376;2023-12-29T02:03:03;4.80;1.00;0.80
65556;PMS3003;52200;53.490;14.376;2023-12-29T02:05:28;6.75;1.00;0.75
65556;PMS3003;52200;53.490;14.376;2023-12-29T02:07:56;7.00;2.60;0.00
65556;PMS3003;52200;53.490;14.376;2023-12-29T02:10:21;7.00;1.75;1.00
65556;PMS3003;52200;53.490;14.376;2023-12-29T02:12:48;4.20;1.00;0.00
65556;PMS3003;52200;53.490;14.376;2023-12-29T02:15:15;6.60;2.00;0.00
65556;PMS3003;52200;53.490;14.376;2023-12-29T02:17:41;8.00;1.00;0.00
65556;PMS3003;52200;53.490;14.376;2023-12-29T02:20:11;5.00;1.40;0.00
65556;PMS3003;52200;53.490;14.376;2023-12-29T02:22:36;4.00;0.75;0.00
65556;PMS3003;52200;53.490;14.376;2023-12-29T02:25:02;7.50;1.75;0.00
65556;PMS3003;52200;53.490;14.376;2023-12-29T02:27:34;6.40;1.00;0.00
65556;PMS3003;52200;53.490;14.376;2023-12-29T02:30:25;6.40;1.00;0.00
65556;PMS3003;52200;53.490;14.376;2023-12-29T02:33:01;7.20;2.00;0.00
65556;PMS3003;52200;53.490;14.376;2023-12-29T02:35:31;6.40;1.60;1.00
65556;PMS3003;52200;53.490;14.376;2023-12-29T02:38:01;4.40;1.20;0.00
65556;PMS3003;52200;53.490;14.376;2023-12-29T02:40:26;4.00;0.60;0.00
65556;PMS3003;52200;53.490;14.376;2023-12-29T02:42:52;5.80;1.60;0.80
65556;PMS3003;52200;53.490;14.376;2023-12-29T02:45:18;7.00;2.00;1.00
65556;PMS3003;52200;53.490;14.376;2023-12-29T02:47:44;8.00;0.75;0.00
65556;PMS3003;52200;53.490;14.376;2023-12-29T02:50:10;5.20;1.20;0.00
65556;PMS3003;52200;53.490;14.376;2023-12-29T02:52:36;6.20;1.20;0.00
65556;PMS3003;52200;53.490;14.376;2023-12-29T02:55:02;7.00;1.00;0.00
65556;PMS3003;52200;53.490;14.376;2023-12-29T02:57:28;5.40;1.60;0.00
65556;PMS3003;52200;53.490;14.376;2023-12-29T02:59:54;4.00;1.00;0.00
65556;PMS3003;52200;53.490;14.376;2023-12-29T03:02:21;4.40;0.60;0.00
65556;PMS3003;52200;53.490;14.376;2023-12-29T03:04:47;5.80;1.00;0.00
65556;PMS3003;52200;53.490;14.376;2023-12-29T03:07:12;7.25;1.50;0.00
65556;PMS3003;52200;53.490;14.376;2023-12-29T03:09:37;4.75;1.00;0.00
65556;PMS3003;52200;53.490;14.376;2023-12-29T03:12:03;4.00;0.25;0.00
65556;PMS3003;52200;53.490;14.376;2023-12-29T03:14:29;4.80;0.80;0.00
65556;PMS3003;52200;53.490;14.376;2023-12-29T03:16:54;7.50;1.25;0.00
65556;PMS3003;52200;53.490;14.376;2023-12-29T03:19:20;4.75;0.75;0.00
65556;PMS3003;52200;53.490;14.376;2023-12-29T03:21:45;5.50;1.25;0.00
65556;PMS3003;52200;53.490;14.376;2023-12-29T03:24:11;7.00;2.75;0.00
65556;PMS3003;52200;53.490;14.376;2023-12-29T03:26:36;4.00;1.00;0.00
65556;PMS3003;52200;53.490;14.376;2023-12-29T03:29:02;8.50;2.50;0.00
65556;PMS3003;52200;53.490;14.376;2023-12-29T03:31:27;4.75;2.00;0.00
65556;PMS3003;52200;53.490;14.376;2023-12-29T03:33:53;5.25;1.50;0.00
65556;PMS3003;52200;53.490;14.376;2023-12-29T03:36:18;6.50;2.00;0.00
65556;PMS3003;52200;53.490;14.376;2023-12-29T03:38:43;3.75;0.00;0.00
65556;PMS3003;52200;53.490;14.376;2023-12-29T03:41:09;5.25;1.00;0.00
65556;PMS3003;52200;53.490;14.376;2023-12-29T03:43:34;7.00;2.00;0.00
65556;PMS3003;52200;53.490;14.376;2023-12-29T03:46:00;4.75;0.50;0.00
65556;PMS3003;52200;53.490;14.376;2023-12-29T03:48:25;4.00;1.00;0.00
65556;PMS3003;52200;53.490;14.376;2023-12-29T03:50:51;4.00;1.00;0.00
65556;PMS3003;52200;53.490;14.376;2023-12-29T03:53:16;4.50;1.00;0.00
65556;PMS3003;52200;53.490;14.376;2023-12-29T03:55:41;3.00;0.00;0.00
65556;PMS3003;52200;53.490;14.376;2023-12-29T03:58:07;4.00;1.00;0.00
65556;PMS3003;52200;53.490;14.376;2023-12-29T04:00:32;5.25;1.25;0.00
65556;PMS3003;52200;53.490;14.376;2023-12-29T04:02:58;9.00;2.50;0.00
65556;PMS3003;52200;53.490;14.376;2023-12-29T04:05:23;3.50;0.00;0.00
65556;PMS3003;52200;53.490;14.376;2023-12-29T04:07:49;7.00;0.25;0.00
65556;PMS3003;52200;53.490;14.376;2023-12-29T04:10:14;6.00;1.50;0.00
65556;PMS3003;52200;53.490;14.376;2023-12-29T04:12:40;4.50;1.00;0.00
65556;PMS3003;52200;53.490;14.376;2023-12-29T04:15:05;6.00;2.00;0.00
65556;PMS3003;52200;53.490;14.376;2023-12-29T04:17:31;4.00;1.00;0.00
65556;PMS3003;52200;53.490;14.376;2023-12-29T04:19:57;7.50;2.00;0.00
65556;PMS3003;52200;53.490;14.376;2023-12-29T04:22:22;7.00;2.00;0.00
65556;PMS3003;52200;53.490;14.376;2023-12-29T04:24:48;5.00;1.00;0.00
65556;PMS3003;52200;53.490;14.376;2023-12-29T04:27:14;4.50;1.00;0.00
65556;PMS3003;52200;53.490;14.376;2023-12-29T04:29:39;5.00;0.00;0.00
65556;PMS3003;52200;53.490;14.376;2023-12-29T04:32:05;4.00;1.00;0.00
65556;PMS3003;52200;53.490;14.376;2023-12-29T04:34:31;4.50;1.00;0.00
65556;PMS3003;52200;53.490;14.376;2023-12-29T04:36:56;4.00;1.00;0.00
65556;PMS3003;52200;53.490;14.376;2023-12-29T04:39:21;7.75;2.50;0.00
65556;PMS3003;52200;53.490;14.376;2023-12-29T04:41:47;3.50;0.50;0.00
65556;PMS3003;52200;53.490;14.376;2023-12-29T04:44:12;5.00;1.00;0.00
65556;PMS3003;52200;53.490;14.376;2023-12-29T04:46:38;5.25;1.00;0.00
65556;PMS3003;52200;53.490;14.376;2023-12-29T04:49:03;6.00;1.00;0.00
65556;PMS3003;52200;53.490;14.376;2023-12-29T04:51:29;6.25;1.50;0.00
65556;PMS3003;52200;53.490;14.376;2023-12-29T04:53:54;4.50;0.50;0.00
65556;PMS3003;52200;53.490;14.376;2023-12-29T04:56:20;8.00;2.00;1.00
65556;PMS3003;52200;53.490;14.376;2023-12-29T04:58:45;5.50;1.75;0.25
65556;PMS3003;52200;53.490;14.376;2023-12-29T05:01:11;4.00;0.25;0.00
65556;PMS3003;52200;53.490;14.376;2023-12-29T05:03:36;4.75;1.00;0.25
65556;PMS3003;52200;53.490;14.376;2023-12-29T05:06:02;4.00;1.00;0.00
65556;PMS3003;52200;53.490;14.376;2023-12-29T05:08:27;8.50;1.00;0.00
65556;PMS3003;52200;53.490;14.376;2023-12-29T05:10:53;7.25;1.00;0.00
65556;PMS3003;52200;53.490;14.376;2023-12-29T05:13:18;5.75;1.50;0.00
65556;PMS3003;52200;53.490;14.376;2023-12-29T05:15:44;8.75;0.00;0.00
65556;PMS3003;52200;53.490;14.376;2023-12-29T05:18:09;7.50;1.00;0.00
65556;PMS3003;52200;53.490;14.376;2023-12-29T05:20:34;4.25;1.00;0.00
65556;PMS3003;52200;53.490;14.376;2023-12-29T05:23:00;5.00;1.75;0.00
65556;PMS3003;52200;53.490;14.376;2023-12-29T05:25:25;8.00;1.50;0.00
65556;PMS3003;52200;53.490;14.376;2023-12-29T05:27:51;7.50;2.25;1.00
65556;PMS3003;52200;53.490;14.376;2023-12-29T05:30:16;8.50;1.00;0.00
65556;PMS3003;52200;53.490;14.376;2023-12-29T05:32:42;4.00;0.00;0.00
65556;PMS3003;52200;53.490;14.376;2023-12-29T05:35:07;4.75;1.00;1.00
65556;PMS3003;52200;53.490;14.376;2023-12-29T05:37:33;9.40;1.00;0.00
65556;PMS3003;52200;53.490;14.376;2023-12-29T05:39:59;8.00;0.50;0.00
65556;PMS3003;52200;53.490;14.376;2023-12-29T05:42:24;7.25;1.00;0.00
65556;PMS3003;52200;53.490;14.376;2023-12-29T05:44:50;9.25;0.50;0.00
65556;PMS3003;52200;53.490;14.376;2023-12-29T05:47:17;8.75;1.50;0.00
65556;PMS3003;52200;53.490;14.376;2023-12-29T05:49:42;7.80;1.20;0.00
65556;PMS3003;52200;53.490;14.376;2023-12-29T05:52:08;9.00;1.00;0.00
65556;PMS3003;52200;53.490;14.376;2023-12-29T05:54:34;8.75;1.00;0.00
65556;PMS3003;52200;53.490;14.376;2023-12-29T05:56:59;7.00;1.00;0.00
65556;PMS3003;52200;53.490;14.376;2023-12-29T05:59:25;7.00;0.75;0.00
65556;PMS3003;52200;53.490;14.376;2023-12-29T06:01:50;10.50;2.00;0.00
65556;PMS3003;52200;53.490;14.376;2023-12-29T06:04:16;8.75;1.75;0.00
65556;PMS3003;52200;53.490;14.376;2023-12-29T06:06:42;8.00;1.25;0.25
65556;PMS3003;52200;53.490;14.376;2023-12-29T06:09:08;8.80;1.00;0.00
65556;PMS3003;52200;53.490;14.376;2023-12-29T06:11:34;7.60;0.00;0.00
65556;PMS3003;52200;53.490;14.376;2023-12-29T06:14:00;9.50;1.00;0.00
65556;PMS3003;52200;53.490;14.376;2023-12-29T06:16:25;7.00;0.00;0.00
65556;PMS3003;52200;53.490;14.376;2023-12-29T06:18:52;5.60;0.00;0.00
65556;PMS3003;52200;53.490;14.376;2023-12-29T06:21:17;7.75;1.00;0.00
65556;PMS3003;52200;53.490;14.376;2023-12-29T06:23:44;7.00;0.00;0.00
65556;PMS3003;52200;53.490;14.376;2023-12-29T06:26:18;9.20;0.00;0.00
65556;PMS3003;52200;53.490;14.376;2023-12-29T06:28:45;7.00;1.00;0.00
65556;PMS3003;52200;53.490;14.376;2023-12-29T06:31:11;8.00;0.60;0.00
65556;PMS3003;52200;53.490;14.376;2023-12-29T06:33:41;6.20;0.00;0.00
65556;PMS3003;52200;53.490;14.376;2023-12-29T06:36:07;8.00;1.00;0.00
65556;PMS3003;52200;53.490;14.376;2023-12-29T06:38:33;7.00;0.00;0.00
65556;PMS3003;52200;53.490;14.376;2023-12-29T06:40:59;7.00;1.00;0.00
65556;PMS3003;52200;53.490;14.376;2023-12-29T06:43:26;8.00;1.00;0.00
65556;PMS3003;52200;53.490;14.376;2023-12-29T06:45:52;7.00;0.50;0.00
65556;PMS3003;52200;53.490;14.376;2023-12-29T06:48:17;9.00;1.25;0.00
65556;PMS3003;52200;53.490;14.376;2023-12-29T06:50:42;7.50;0.25;0.00
65556;PMS3003;52200;53.490;14.376;2023-12-29T06:53:08;7.50;0.75;0.00
65556;PMS3003;52200;53.490;14.376;2023-12-29T06:55:33;7.00;1.00;0.00
65556;PMS3003;52200;53.490;14.376;2023-12-29T06:57:58;8.75;1.00;0.00
65556;PMS3003;52200;53.490;14.376;2023-12-29T07:00:24;7.00;1.00;0.00
65556;PMS3003;52200;53.490;14.376;2023-12-29T07:02:49;7.50;0.50;0.00
65556;PMS3003;52200;53.490;14.376;2023-12-29T07:05:15;8.00;0.25;0.00
65556;PMS3003;52200;53.490;14.376;2023-12-29T07:07:40;8.00;1.00;0.00
65556;PMS3003;52200;53.490;14.376;2023-12-29T07:10:06;7.00;1.00;0.00
65556;PMS3003;52200;53.490;14.376;2023-12-29T07:12:31;7.40;0.80;0.00
65556;PMS3003;52200;53.490;14.376;2023-12-29T07:14:57;9.00;1.00;0.00
65556;PMS3003;52200;53.490;14.376;2023-12-29T07:17:22;9.00;1.00;0.00
65556;PMS3003;52200;53.490;14.376;2023-12-29T07:19:48;8.00;1.00;0.00
65556;PMS3003;52200;53.490;14.376;2023-12-29T07:22:14;9.40;0.80;0.00
65556;PMS3003;52200;53.490;14.376;2023-12-29T07:24:40;6.50;0.00;0.00
65556;PMS3003;52200;53.490;14.376;2023-12-29T07:27:06;7.00;0.50;0.00
65556;PMS3003;52200;53.490;14.376;2023-12-29T07:29:32;8.20;1.20;0.00
65556;PMS3003;52200;53.490;14.376;2023-12-29T07:31:58;6.60;0.00;0.00
65556;PMS3003;52200;53.490;14.376;2023-12-29T07:34:24;480.20;473.00;473.00
65556;PMS3003;52200;53.490;14.376;2023-12-29T07:36:50;3982.00;3982.00;3982.00
65556;PMS3003;52200;53.490;14.376;2023-12-29T07:39:15;3963.00;3963.00;3963.00
65556;PMS3003;52200;53.490;14.376;2023-12-29T07:41:41;3972.00;3972.00;3972.00
65556;PMS3003;52200;53.490;14.376;2023-12-29T07:44:12;3979.25;3979.25;3979.25
65556;PMS3003;52200;53.490;14.376;2023-12-29T07:46:38;3991.60;3991.60;3991.60
65556;PMS3003;52200;53.490;14.376;2023-12-29T07:49:05;4047.40;4047.40;4047.40
65556;PMS3003;52200;53.490;14.376;2023-12-29T07:51:31;4085.40;4085.40;4085.40
65556;PMS3003;52200;53.490;14.376;2023-12-29T07:53:56;4109.00;4109.00;4109.00
65556;PMS3003;52200;53.490;14.376;2023-12-29T07:56:22;4109.00;4109.00;4109.00
65556;PMS3003;52200;53.490;14.376;2023-12-29T07:58:47;4129.00;4129.00;4129.00
65556;PMS3003;52200;53.490;14.376;2023-12-29T08:01:13;4119.00;4119.00;4119.00
65556;PMS3003;52200;53.490;14.376;2023-12-29T08:03:39;4119.00;4119.00;4119.00
65556;PMS3003;52200;53.490;14.376;2023-12-29T08:06:04;4135.00;4135.00;4135.00
65556;PMS3003;52200;53.490;14.376;2023-12-29T08:08:30;4129.00;4129.00;4129.00
65556;PMS3003;52200;53.490;14.376;2023-12-29T08:10:55;4160.00;4160.00;4160.00
65556;PMS3003;52200;53.490;14.376;2023-12-29T08:13:21;4160.00;4160.00;4160.00
65556;PMS3003;52200;53.490;14.376;2023-12-29T08:15:46;4149.00;4149.00;4149.00
65556;PMS3003;52200;53.490;14.376;2023-12-29T08:18:12;4137.00;4137.00;4137.00
65556;PMS3003;52200;53.490;14.376;2023-12-29T08:20:38;4129.00;4129.00;4129.00
65556;PMS3003;52200;53.490;14.376;2023-12-29T08:23:03;4149.00;4149.00;4149.00
65556;PMS3003;52200;53.490;14.376;2023-12-29T08:25:29;4129.00;4129.00;4129.00
65556;PMS3003;52200;53.490;14.376;2023-12-29T08:27:58;4129.00;4129.00;4129.00
65556;PMS3003;52200;53.490;14.376;2023-12-29T08:30:23;4111.00;4111.00;4111.00
65556;PMS3003;52200;53.490;14.376;2023-12-29T08:32:48;4129.00;4129.00;4129.00
65556;PMS3003;52200;53.490;14.376;2023-12-29T08:35:14;4139.00;4139.00;4139.00
65556;PMS3003;52200;53.490;14.376;2023-12-29T08:37:40;4139.00;4139.00;4139.00
65556;PMS3003;52200;53.490;14.376;2023-12-29T08:40:05;4129.00;4129.00;4129.00
65556;PMS3003;52200;53.490;14.376;2023-12-29T08:42:31;4107.00;4107.00;4107.00
65556;PMS3003;52200;53.490;14.376;2023-12-29T08:44:58;4109.00;4109.00;4109.00
65556;PMS3003;52200;53.490;14.376;2023-12-29T08:47:24;4119.00;4119.00;4119.00
65556;PMS3003;52200;53.490;14.376;2023-12-29T08:49:50;4119.00;4119.00;4119.00
65556;PMS3003;52200;53.490;14.376;2023-12-29T08:52:16;4109.00;4109.00;4109.00
65556;PMS3003;52200;53.490;14.376;2023-12-29T08:54:41;4109.00;4109.00;4109.00
65556;PMS3003;52200;53.490;14.376;2023-12-29T08:57:07;4119.00;4119.00;4119.00
65556;PMS3003;52200;53.490;14.376;2023-12-29T08:59:33;4089.00;4089.00;4089.00
65556;PMS3003;52200;53.490;14.376;2023-12-29T09:01:58;4097.00;4097.00;4097.00
65556;PMS3003;52200;53.490;14.376;2023-12-29T09:04:25;4087.00;4087.00;4087.00
65556;PMS3003;52200;53.490;14.376;2023-12-29T09:06:50;4079.00;4079.00;4079.00
65556;PMS3003;52200;53.490;14.376;2023-12-29T09:09:16;4089.00;4089.00;4089.00
65556;PMS3003;52200;53.490;14.376;2023-12-29T09:11:41;4089.00;4089.00;4089.00
65556;PMS3003;52200;53.490;14.376;2023-12-29T09:14:07;4109.00;4109.00;4109.00
65556;PMS3003;52200;53.490;14.376;2023-12-29T09:16:34;4079.00;4079.00;4079.00
65556;PMS3003;52200;53.490;14.376;2023-12-29T09:19:00;4087.00;4087.00;4087.00
65556;PMS3003;52200;53.490;14.376;2023-12-29T09:21:26;4119.00;4119.00;4119.00
65556;PMS3003;52200;53.490;14.376;2023-12-29T09:23:51;4089.00;4089.00;4089.00
65556;PMS3003;52200;53.490;14.376;2023-12-29T09:26:17;4067.20;4067.20;4067.20
65556;PMS3003;52200;53.490;14.376;2023-12-29T09:28:43;4089.00;4089.00;4089.00
65556;PMS3003;52200;53.490;14.376;2023-12-29T09:31:11;4077.20;4077.20;4077.20
65556;PMS3003;52200;53.490;14.376;2023-12-29T09:33:37;4055.40;4055.40;4055.40
65556;PMS3003;52200;53.490;14.376;2023-12-29T09:36:03;4079.00;4079.00;4079.00
65556;PMS3003;52200;53.490;14.376;2023-12-29T09:38:29;4039.40;4039.40;4039.40
65556;PMS3003;52200;53.490;14.376;2023-12-29T09:40:55;4049.00;4049.00;4049.00
65556;PMS3003;52200;53.490;14.376;2023-12-29T09:43:28;4039.40;4039.40;4039.40
65556;PMS3003;52200;53.490;14.376;2023-12-29T09:45:56;4049.20;4049.20;4049.20
65556;PMS3003;52200;53.490;14.376;2023-12-29T09:48:23;4047.40;4047.40;4047.40
65556;PMS3003;52200;53.490;14.376;2023-12-29T09:50:52;4037.40;4037.40;4037.40
65556;PMS3003;52200;53.490;14.376;2023-12-29T09:53:19;4039.40;4039.40;4039.40
65556;PMS3003;52200;53.490;14.376;2023-12-29T09:55:48;4008.60;4008.60;4008.60
65556;PMS3003;52200;53.490;14.376;2023-12-29T09:58:14;3991.60;3991.60;3991.60
65556;PMS3003;52200;53.490;14.376;2023-12-29T10:00:40;3978.00;3978.00;3978.00
65556;PMS3003;52200;53.490;14.376;2023-12-29T10:03:08;3970.80;3970.80;3970.80
65556;PMS3003;52200;53.490;14.376;2023-12-29T10:05:34;3962.80;3962.80;3962.80
65556;PMS3003;52200;53.490;14.376;2023-12-29T10:08:01;3991.00;3991.00;3991.00
65556;PMS3003;52200;53.490;14.376;2023-12-29T10:10:30;3987.80;3987.80;3987.80
65556;PMS3003;52200;53.490;14.376;2023-12-29T10:12:58;3978.00;3978.00;3978.00
65556;PMS3003;52200;53.490;14.376;2023-12-29T10:15:37;3962.80;3962.80;3962.80
65556;PMS3003;52200;53.490;14.376;2023-12-29T10:19:07;3989.60;3989.60;3989.60
65556;PMS3003;52200;53.490;14.376;2023-12-29T10:23:53;3979.80;3979.80;3979.80
65556;PMS3003;52200;53.490;14.376;2023-12-29T10:26:23;3991.60;3991.60;3991.60
65556;PMS3003;52200;53.490;14.376;2023-12-29T10:28:51;3991.60;3991.60;3991.60
65556;PMS3003;52200;53.490;14.376;2023-12-29T10:31:17;4000.60;4000.60;4000.60
65556;PMS3003;52200;53.490;14.376;2023-12-29T10:33:43;3991.00;3991.00;3991.00
65556;PMS3003;52200;53.490;14.376;2023-12-29T10:36:08;4001.00;4001.00;4001.00
65556;PMS3003;52200;53.490;14.376;2023-12-29T10:38:38;3989.60;3989.60;3989.60
65556;PMS3003;52200;53.490;14.376;2023-12-29T10:41:10;3981.60;3981.60;3981.60
65556;PMS3003;52200;53.490;14.376;2023-12-29T10:43:36;3991.60;3991.60;3991.60
65556;PMS3003;52200;53.490;14.376;2023-12-29T10:46:08;4001.00;4001.00;4001.00
65556;PMS3003;52200;53.490;14.376;2023-12-29T10:48:35;4000.60;4000.60;4000.60
65556;PMS3003;52200;53.490;14.376;2023-12-29T10:51:02;3979.80;3979.80;3979.80
65556;PMS3003;52200;53.490;14.376;2023-12-29T10:53:32;3991.60;3991.60;3991.60
65556;PMS3003;52200;53.490;14.376;2023-12-29T10:55:58;3989.60;3989.60;3989.60
65556;PMS3003;52200;53.490;14.376;2023-12-29T10:58:28;3970.80;3970.80;3970.80
65556;PMS3003;52200;53.490;14.376;2023-12-29T11:00:55;3970.80;3970.80;3970.80
65556;PMS3003;52200;53.490;14.376;2023-12-29T11:03:21;4000.60;4000.60;4000.60
65556;PMS3003;52200;53.490;14.376;2023-12-29T11:05:49;3979.80;3979.80;3979.80
65556;PMS3003;52200;53.490;14.376;2023-12-29T11:08:18;4000.60;4000.60;4000.60
65556;PMS3003;52200;53.490;14.376;2023-12-29T11:10:45;3978.00;3978.00;3978.00
65556;PMS3003;52200;53.490;14.376;2023-12-29T11:13:13;3989.60;3989.60;3989.60
65556;PMS3003;52200;53.490;14.376;2023-12-29T11:15:42;3991.60;3991.60;3991.60
65556;PMS3003;52200;53.490;14.376;2023-12-29T11:18:13;3991.60;3991.60;3991.60
65556;PMS3003;52200;53.490;14.376;2023-12-29T11:20:41;3993.40;3993.40;3993.40
65556;PMS3003;52200;53.490;14.376;2023-12-29T11:23:08;3993.40;3993.40;3993.40
65556;PMS3003;52200;53.490;14.376;2023-12-29T11:25:35;3978.00;3978.00;3978.00
65556;PMS3003;52200;53.490;14.376;2023-12-29T11:28:01;3991.60;3991.60;3991.60
65556;PMS3003;52200;53.490;14.376;2023-12-29T11:30:27;3970.80;3970.80;3970.80
65556;PMS3003;52200;53.490;14.376;2023-12-29T11:35:56;3970.80;3970.80;3970.80
65556;PMS3003;52200;53.490;14.376;2023-12-29T11:43:59;3970.80;3970.80;3970.80
65556;PMS3003;52200;53.490;14.376;2023-12-29T11:46:35;3951.80;3951.80;3951.80
65556;PMS3003;52200;53.490;14.376;2023-12-29T11:49:02;3953.80;3953.80;3953.80
65556;PMS3003;52200;53.490;14.376;2023-12-29T11:51:36;3933.00;3933.00;3933.00
65556;PMS3003;52200;53.490;14.376;2023-12-29T11:54:20;3953.80;3953.80;3953.80
65556;PMS3003;52200;53.490;14.376;2023-12-29T11:56:47;3941.00;3941.00;3941.00
65556;PMS3003;52200;53.490;14.376;2023-12-29T11:59:19;3944.00;3944.00;3944.00
65556;PMS3003;52200;53.490;14.376;2023-12-29T12:01:46;3933.00;3933.00;3933.00
65556;PMS3003;52200;53.490;14.376;2023-12-29T12:12:47;3953.80;3953.80;3953.80
65556;PMS3003;52200;53.490;14.376;2023-12-29T12:18:04;3944.60;3944.60;3944.60
65556;PMS3003;52200;53.490;14.376;2023-12-29T12:20:34;3951.80;3951.80;3951.80
65556;PMS3003;52200;53.490;14.376;2023-12-29T12:23:16;3953.80;3953.80;3953.80
65556;PMS3003;52200;53.490;14.376;2023-12-29T12:25:43;3978.00;3978.00;3978.00
65556;PMS3003;52200;53.490;14.376;2023-12-29T12:28:11;3962.80;3962.80;3962.80
65556;PMS3003;52200;53.490;14.376;2023-12-29T12:30:39;3951.80;3951.80;3951.80
65556;PMS3003;52200;53.490;14.376;2023-12-29T12:33:05;3963.00;3963.00;3963.00
65556;PMS3003;52200;53.490;14.376;2023-12-29T12:35:30;3972.00;3972.00;3972.00
65556;PMS3003;52200;53.490;14.376;2023-12-29T12:38:15;3951.80;3951.80;3951.80
65556;PMS3003;52200;53.490;14.376;2023-12-29T12:40:49;3959.00;3959.00;3959.00
65556;PMS3003;52200;53.490;14.376;2023-12-29T12:43:15;3963.00;3963.00;3963.00
65556;PMS3003;52200;53.490;14.376;2023-12-29T12:45:41;3953.80;3953.80;3953.80
65556;PMS3003;52200;53.490;14.376;2023-12-29T12:48:19;3951.80;3951.80;3951.80
65556;PMS3003;52200;53.490;14.376;2023-12-29T12:50:48;3950.00;3950.00;3950.00
65556;PMS3003;52200;53.490;14.376;2023-12-29T12:53:14;3948.20;3948.20;3948.20
65556;PMS3003;52200;53.490;14.376;2023-12-29T12:55:47;3941.00;3941.00;3941.00
65556;PMS3003;52200;53.490;14.376;2023-12-29T12:58:19;3972.60;3972.60;3972.60
65556;PMS3003;52200;53.490;14.376;2023-12-29T13:00:48;3989.60;3989.60;3989.60
65556;PMS3003;52200;53.490;14.376;2023-12-29T13:03:14;4008.60;4008.60;4008.60
65556;PMS3003;52200;53.490;14.376;2023-12-29T13:05:40;4025.60;4025.60;4025.60
65556;PMS3003;52200;53.490;14.376;2023-12-29T13:08:06;4039.40;4039.40;4039.40
65556;PMS3003;52200;53.490;14.376;2023-12-29T13:10:33;4049.20;4049.20;4049.20
65556;PMS3003;52200;53.490;14.376;2023-12-29T13:12:59;4071.00;4071.00;4071.00
65556;PMS3003;52200;53.490;14.376;2023-12-29T13:15:24;4099.00;4099.00;4099.00
65556;PMS3003;52200;53.490;14.376;2023-12-29T13:17:51;4109.00;4109.00;4109.00
65556;PMS3003;52200;53.490;14.376;2023-12-29T13:20:19;4111.00;4111.00;4111.00
65556;PMS3003;52200;53.490;14.376;2023-12-29T13:22:51;4109.00;4109.00;4109.00
65556;PMS3003;52200;53.490;14.376;2023-12-29T13:25:20;4147.80;4147.80;4147.80
65556;PMS3003;52200;53.490;14.376;2023-12-29T13:27:49;4137.00;4137.00;4137.00
65556;PMS3003;52200;53.490;14.376;2023-12-29T13:30:15;4149.80;4149.80;4149.80
65556;PMS3003;52200;53.490;14.376;2023-12-29T13:32:42;4147.80;4147.80;4147.80
65556;PMS3003;52200;53.490;14.376;2023-12-29T13:38:19;4192.80;4192.80;4192.80
65556;PMS3003;52200;53.490;14.376;2023-12-29T13:40:56;4159.80;4159.80;4159.80
65556;PMS3003;52200;53.490;14.376;2023-12-29T13:43:42;4186.60;4186.60;4186.60
65556;PMS3003;52200;53.490;14.376;2023-12-29T13:46:11;4151.80;4151.80;4151.80
65556;PMS3003;52200;53.490;14.376;2023-12-29T13:48:39;4147.80;4147.80;4147.80